Terminal Aerodrome Forecast
Issued by NWS

Home | Current Version | Previous Version | Text Only | Print | Product List | Glossary Off
Versions: 1 2 3 4 5 6 7 8 9 10 11 12 13 14 15 16

000
FTUS43 KICT 232339
TAFSLN
TAF
KSLN 232339Z 2400/2424 33019G28KT 5SM -SN BR OVC015
     FM240200 34017G26KT P6SM OVC020
     FM241100 33016KT P6SM OVC025
     FM241600 34015KT P6SM SCT020 BKN035=

USA.gov is the U.S. government's official web portal to all federal, state and local government web resources and services.